Time;durP1;ratioP1;P1;durP2;ratioP2;P2;SDS_P1;SDS_P2;PMS_P1;PMS_P2;Temp;Humidity;BMP_temperature;BMP_pressure;BME280_temperature;BME280_humidity;BME280_pressure;Samples;Min_cycle;Max_cycle;Signal;HPM_P1;HPM_P2
2021/09/19 00:00:16;;;;;;;;;;;;;;;11.16;98.34;97684.36;1637458;86;20173;-82
2021/09/19 00:02:46;;;;;;;;;;;;;;;11.15;98.26;97681.95;1637381;86;20144;-82
2021/09/19 00:05:13;;;;;;;;;;;;;;;11.13;99.34;97679.53;1637199;86;20164;-77
2021/09/19 00:07:39;;;;;;;;;;;;;;;11.22;98.87;97685.11;1637345;86;20169;-76
2021/09/19 00:10:07;;;;;;;;;;;;;;;11.28;98.88;97680.69;1637237;86;20152;-77
2021/09/19 00:12:35;;;;;;;;;;;;;;;11.34;98.82;97677.89;1637640;86;20149;-82
2021/09/19 00:15:02;;;;;;;;;;;;;;;11.35;97.99;97677.59;1602610;88;21058;-76
2021/09/19 00:17:29;;;;;;;;;;;;;;;11.34;97.65;97676.53;1607374;87;21292;-83
2021/09/19 00:19:55;;;;;;;;;;;;;;;11.38;97.25;97676.22;1639731;86;20148;-83
2021/09/19 00:22:22;;;;;;;;;;;;;;;11.34;97.50;97677.34;1639252;86;20727;-77
2021/09/19 00:24:49;;;;;;;;;;;;;;;11.35;97.74;97676.79;1637335;86;20120;-76
2021/09/19 00:27:17;;;;;;;;;;;;;;;11.32;98.09;97679.55;1637470;86;21028;-82
2021/09/19 00:29:44;;;;;;;;;;;;;;;11.35;98.44;97684.37;1637109;86;20104;-83
2021/09/19 00:32:11;;;;;;;;;;;;;;;11.42;97.51;97689.44;1637976;86;20154;-77
2021/09/19 00:34:38;;;;;;;;;;;;;;;11.49;97.02;97687.98;1641554;87;20142;-77
2021/09/19 00:37:05;;;;;;;;;;;;;;;11.51;97.01;97691.20;1641666;86;20103;-82
2021/09/19 00:39:31;;;;;;;;;;;;;;;11.53;96.82;97689.55;1641368;86;20880;-77
2021/09/19 00:41:58;;;;;;;;;;;;;;;11.45;97.86;97683.42;1641522;85;20146;-76
2021/09/19 00:44:26;;;;;;;;;;;;;;;11.48;97.86;97685.56;1641424;86;20167;-77
2021/09/19 00:46:54;;;;;;;;;;;;;;;11.48;98.31;97689.08;1641703;86;20224;-77
2021/09/19 00:49:20;;;;;;;;;;;;;;;11.29;98.00;97683.66;1641650;85;20405;-82
2021/09/19 00:51:47;;;;;;;;;;;;;;;11.24;97.42;97687.78;1641593;86;21627;-76
2021/09/19 00:54:14;;;;;;;;;;;;;;;11.21;97.25;97693.00;1613808;87;20432;-76
2021/09/19 00:56:41;;;;;;;;;;;;;;;11.15;97.00;97699.02;1632223;86;20491;-82
2021/09/19 00:59:09;;;;;;;;;;;;;;;11.12;97.17;97698.26;1642196;85;20138;-76
2021/09/19 01:01:36;;;;;;;;;;;;;;;11.01;97.86;97700.27;1641701;87;20197;-77
2021/09/19 01:04:03;;;;;;;;;;;;;;;11.01;97.93;97696.75;1641458;85;20907;-77
2021/09/19 01:06:29;;;;;;;;;;;;;;;11.00;98.14;97707.34;1641599;86;20257;-77
2021/09/19 01:08:56;;;;;;;;;;;;;;;10.98;97.99;97709.54;1641436;86;20424;-77
2021/09/19 01:11:23;;;;;;;;;;;;;;;10.95;98.18;97710.12;1642061;86;20456;-77
2021/09/19 01:13:50;;;;;;;;;;;;;;;10.91;98.07;97701.75;1641478;86;20153;-77
2021/09/19 01:16:18;;;;;;;;;;;;;;;10.93;98.15;97706.33;1642131;87;20973;-77
2021/09/19 01:18:47;;;;;;;;;;;;;;;10.90;98.20;97708.83;1641366;85;20166;-82
2021/09/19 01:21:15;;;;;;;;;;;;;;;10.87;98.14;97712.92;1641656;86;20172;-77
2021/09/19 01:23:59;;;;;;;;;;;;;;;10.76;97.83;97717.38;1634353;86;20192;-77
2021/09/19 01:26:25;;;;;;;;;;;;;;;10.67;97.73;97726.69;1670610;85;20089;-82
2021/09/19 01:28:52;;;;;;;;;;;;;;;10.67;97.83;97728.04;1648494;85;21001;-77
2021/09/19 01:31:19;;;;;;;;;;;;;;;10.62;97.88;97728.91;1641512;85;20211;-81
2021/09/19 01:33:46;;;;;;;;;;;;;;;10.57;97.94;97733.02;1651018;86;20450;-76
2021/09/19 01:36:13;;;;;;;;;;;;;;;10.51;97.37;97734.70;1655856;85;20465;-77
2021/09/19 01:38:40;;;;;;;;;;;;;;;10.51;97.56;97735.53;1655567;85;20154;-76
2021/09/19 01:41:07;;;;;;;;;;;;;;;10.43;96.81;97733.45;1655728;85;21737;-76
2021/09/19 01:43:33;;;;;;;;;;;;;;;10.40;97.40;97738.87;1655523;85;20223;-77
2021/09/19 01:46:04;;;;;;;;;;;;;;;10.28;97.32;97729.52;1655733;85;20222;-82
2021/09/19 01:48:36;;;;;;;;;;;;;;;10.21;97.48;97736.58;1655582;85;20154;-81
2021/09/19 01:51:03;;;;;;;;;;;;;;;10.17;97.94;97741.77;1655741;85;20210;-76
2021/09/19 01:53:29;;;;;;;;;;;;;;;10.22;98.18;97737.38;1629352;86;21035;-77
2021/09/19 01:55:56;;;;;;;;;;;;;;;10.26;98.17;97745.25;1658985;85;20181;-77
2021/09/19 01:58:24;;;;;;;;;;;;;;;10.25;97.59;97741.70;1655732;85;20154;-83
2021/09/19 02:00:56;;;;;;;;;;;;;;;10.24;97.67;97740.64;1655490;85;20426;-82
2021/09/19 02:03:23;;;;;;;;;;;;;;;10.26;97.76;97746.60;1654579;85;20446;-82
2021/09/19 02:05:49;;;;;;;;;;;;;;;10.30;97.52;97741.67;1655695;85;21621;-81
2021/09/19 02:08:16;;;;;;;;;;;;;;;10.35;97.13;97737.58;1655567;85;20138;-77
2021/09/19 02:10:43;;;;;;;;;;;;;;;10.33;97.05;97743.80;1655477;85;20150;-77
2021/09/19 02:13:10;;;;;;;;;;;;;;;10.33;96.81;97739.73;1655692;85;20146;-82
2021/09/19 02:15:37;;;;;;;;;;;;;;;10.25;96.84;97743.61;1655413;85;20145;-77
2021/09/19 02:18:03;;;;;;;;;;;;;;;10.11;97.32;97748.84;1655717;85;20958;-82
2021/09/19 02:20:30;;;;;;;;;;;;;;;10.14;97.43;97742.31;1655488;85;20167;-82
2021/09/19 02:22:57;;;;;;;;;;;;;;;10.12;97.69;97739.09;1630880;86;20171;-82
2021/09/19 02:25:24;;;;;;;;;;;;;;;10.18;97.65;97750.70;1655498;85;20131;-79
2021/09/19 02:27:51;;;;;;;;;;;;;;;10.24;97.13;97744.70;1655790;85;20162;-77
2021/09/19 02:30:18;;;;;;;;;;;;;;;10.18;97.85;97750.70;1655419;85;20926;-82
2021/09/19 02:32:44;;;;;;;;;;;;;;;10.09;98.34;97752.39;1653211;85;20166;-82
2021/09/19 02:35:11;;;;;;;;;;;;;;;10.09;98.41;97749.69;1616260;87;20133;-82
2021/09/19 02:37:39;;;;;;;;;;;;;;;10.01;98.67;97746.23;1644176;85;20573;-77
2021/09/19 02:40:07;;;;;;;;;;;;;;;9.95;98.89;97746.80;1618791;87;20174;-82
2021/09/19 02:42:35;;;;;;;;;;;;;;;10.06;98.32;97739.41;1659261;86;21000;-82
2021/09/19 02:45:03;;;;;;;;;;;;;;;10.05;98.91;97740.50;1660901;85;20150;-77
2021/09/19 02:47:30;;;;;;;;;;;;;;;10.09;98.76;97742.38;1643995;86;20153;-77
2021/09/19 02:49:57;;;;;;;;;;;;;;;10.06;99.03;97744.27;1655931;85;20162;-82
2021/09/19 02:52:23;;;;;;;;;;;;;;;10.09;98.77;97745.63;1639428;86;20183;-82
2021/09/19 02:54:50;;;;;;;;;;;;;;;10.15;98.53;97748.53;1639279;87;21021;-77
2021/09/19 02:57:18;;;;;;;;;;;;;;;10.16;98.91;97751.50;1639372;87;20434;-82
2021/09/19 02:59:44;;;;;;;;;;;;;;;10.16;98.66;97748.24;1641275;87;20138;-77
2021/09/19 03:02:11;;;;;;;;;;;;;;;10.22;98.37;97757.17;1641513;86;20142;-82
2021/09/19 03:04:38;;;;;;;;;;;;;;;10.23;97.90;97752.56;1639609;86;20146;-82
2021/09/19 03:07:05;;;;;;;;;;;;;;;10.26;97.50;97750.66;1639554;86;21011;-82
2021/09/19 03:09:32;;;;;;;;;;;;;;;10.22;97.74;97746.86;1639272;86;20214;-77
2021/09/19 03:11:59;;;;;;;;;;;;;;;10.17;98.07;97756.66;1641511;86;20217;-82
2021/09/19 03:14:25;;;;;;;;;;;;;;;10.20;97.36;97751.21;1641524;86;20174;-82
2021/09/19 03:16:52;;;;;;;;;;;;;;;10.10;97.49;97749.95;1641727;86;20337;-77
2021/09/19 03:19:19;;;;;;;;;;;;;;;10.11;97.72;97751.56;1639430;87;21012;-82
2021/09/19 03:21:46;;;;;;;;;;;;;;;10.11;97.59;97752.91;1639579;86;20201;-78
2021/09/19 03:24:13;;;;;;;;;;;;;;;10.12;97.40;97763.45;1639410;87;20153;-82
2021/09/19 03:26:39;;;;;;;;;;;;;;;10.17;96.15;97763.97;1641613;86;20204;-81
2021/09/19 03:29:06;;;;;;;;;;;;;;;10.08;95.44;97763.77;1641497;87;20102;-77
2021/09/19 03:31:33;;;;;;;;;;;;;;;10.04;93.40;97774.88;1641748;86;21007;-82
2021/09/19 03:34:00;;;;;;;;;;;;;;;9.99;93.03;97784.38;1657220;85;20174;-82
2021/09/19 03:36:26;;;;;;;;;;;;;;;9.81;91.76;97783.70;1670276;85;20184;-81
2021/09/19 03:38:53;;;;;;;;;;;;;;;9.71;90.79;97790.52;1670084;85;20393;-77
2021/09/19 03:41:20;;;;;;;;;;;;;;;9.69;91.50;97791.36;1670602;86;20213;-77
2021/09/19 03:43:47;;;;;;;;;;;;;;;9.66;91.00;97788.67;1670164;85;20987;-77
2021/09/19 03:46:14;;;;;;;;;;;;;;;9.61;91.20;97792.20;1648914;86;20181;-82
2021/09/19 03:48:40;;;;;;;;;;;;;;;9.53;90.72;97801.44;1671880;85;21166;-82
2021/09/19 03:51:07;;;;;;;;;;;;;;;9.47;91.14;97799.30;1670207;85;20500;-77
2021/09/19 03:53:34;;;;;;;;;;;;;;;9.37;90.77;97806.64;1670134;85;20432;-77
2021/09/19 03:56:02;;;;;;;;;;;;;;;9.16;90.06;97809.44;1652376;86;22034;-77
2021/09/19 03:58:29;;;;;;;;;;;;;;;9.07;90.52;97819.20;1670091;85;20150;-82
2021/09/19 04:00:55;;;;;;;;;;;;;;;9.01;90.96;97818.39;1670019;85;20452;-82
2021/09/19 04:03:23;;;;;;;;;;;;;;;9.01;91.29;97812.17;1670158;85;20487;-82
2021/09/19 04:05:49;;;;;;;;;;;;;;;9.07;91.64;97814.34;1669908;85;20155;-77
2021/09/19 04:08:16;;;;;;;;;;;;;;;9.09;91.44;97810.27;1670117;85;21032;-82
2021/09/19 04:10:43;;;;;;;;;;;;;;;9.07;91.77;97807.03;1669931;86;20145;-77
2021/09/19 04:13:10;;;;;;;;;;;;;;;9.12;91.84;97817.81;1670121;86;20145;-77
2021/09/19 04:15:37;;;;;;;;;;;;;;;8.92;90.52;97820.58;1669897;85;20150;-82
2021/09/19 04:18:04;;;;;;;;;;;;;;;8.84;90.12;97819.23;1650151;86;20146;-82
2021/09/19 04:20:31;;;;;;;;;;;;;;;8.90;90.78;97816.80;1671931;85;20879;-82
2021/09/19 04:22:58;;;;;;;;;;;;;;;8.91;90.79;97825.72;1670085;85;20154;-78
2021/09/19 04:25:25;;;;;;;;;;;;;;;8.85;90.40;97826.26;1669963;86;20153;-77
2021/09/19 04:27:52;;;;;;;;;;;;;;;8.78;90.31;97828.42;1669881;85;20197;-82
2021/09/19 04:30:19;;;;;;;;;;;;;;;8.84;90.50;97836.80;1652502;86;20142;-77
2021/09/19 04:32:45;;;;;;;;;;;;;;;8.90;90.47;97841.12;1670156;85;20996;-82
2021/09/19 04:35:12;;;;;;;;;;;;;;;8.81;90.05;97833.30;1645111;86;20169;-78
2021/09/19 04:37:39;;;;;;;;;;;;;;;8.82;89.92;97833.57;1637757;85;20158;-78
2021/09/19 04:40:07;;;;;;;;;;;;;;;8.85;89.60;97841.66;1634680;85;20123;-82
2021/09/19 04:42:34;;;;;;;;;;;;;;;8.81;89.71;97835.20;1634817;86;20178;-78
2021/09/19 04:45:00;;;;;;;;;;;;;;;8.72;88.79;97836.29;1634452;86;21001;-78
2021/09/19 04:47:27;;;;;;;;;;;;;;;8.66;88.35;97841.42;1620871;87;20139;-82
2021/09/19 04:49:54;;;;;;;;;;;;;;;8.66;88.49;97846.28;1649050;86;20142;-82
2021/09/19 04:52:21;;;;;;;;;;;;;;;8.67;89.03;97848.44;1640896;86;20146;-77
2021/09/19 04:54:48;;;;;;;;;;;;;;;8.69;89.01;97849.78;1634421;86;20163;-82
2021/09/19 04:57:14;;;;;;;;;;;;;;;8.72;88.82;97851.15;1634579;86;21035;-82
2021/09/19 04:59:41;;;;;;;;;;;;;;;8.75;88.87;97847.89;1634282;86;20201;-77
2021/09/19 05:02:08;;;;;;;;;;;;;;;8.74;88.28;97853.03;1635008;85;20410;-82
2021/09/19 05:04:35;;;;;;;;;;;;;;;8.77;88.72;97844.37;1634486;85;20458;-83
2021/09/19 05:07:02;;;;;;;;;;;;;;;8.87;89.01;97851.11;1634628;86;20333;-82
2021/09/19 05:09:29;;;;;;;;;;;;;;;8.91;88.89;97858.95;1634435;86;21538;-77
2021/09/19 05:11:56;;;;;;;;;;;;;;;8.94;88.73;97854.89;1634870;86;20090;-82
2021/09/19 05:14:22;;;;;;;;;;;;;;;8.90;88.59;97855.98;1634518;86;20201;-77
2021/09/19 05:16:49;;;;;;;;;;;;;;;8.89;89.04;97854.91;1634540;86;20142;-77
2021/09/19 05:19:16;;;;;;;;;;;;;;;8.99;89.09;97851.64;1634529;86;20109;-77
2021/09/19 05:21:43;;;;;;;;;;;;;;;9.07;88.93;97852.17;1634591;86;20945;-77
2021/09/19 05:24:10;;;;;;;;;;;;;;;9.15;88.82;97845.67;1634459;85;20166;-83
2021/09/19 05:26:37;;;;;;;;;;;;;;;9.21;88.91;97849.95;1612898;86;20150;-82
2021/09/19 05:29:03;;;;;;;;;;;;;;;9.24;89.01;97853.48;1639390;85;20138;-77
2021/09/19 05:31:30;;;;;;;;;;;;;;;9.25;88.70;97856.45;1634092;86;20421;-83
2021/09/19 05:33:57;;;;;;;;;;;;;;;9.30;88.70;97856.96;1636441;85;21585;-83
2021/09/19 05:36:24;;;;;;;;;;;;;;;9.31;88.31;97853.17;1614919;87;20274;-77
2021/09/19 05:38:51;;;;;;;;;;;;;;;9.30;88.56;97860.47;1644159;85;20149;-78
2021/09/19 05:41:18;;;;;;;;;;;;;;;9.28;88.42;97858.59;1643910;86;20715;-82
2021/09/19 05:43:45;;;;;;;;;;;;;;;9.21;88.30;97854.01;1643761;86;20170;-77
2021/09/19 05:46:12;;;;;;;;;;;;;;;9.22;88.14;97859.69;1641354;85;20921;-82
2021/09/19 05:48:39;;;;;;;;;;;;;;;9.29;88.84;97863.45;1641401;86;20163;-82
2021/09/19 05:51:06;;;;;;;;;;;;;;;9.32;88.47;97860.22;1641351;86;20167;-82
2021/09/19 05:53:33;;;;;;;;;;;;;;;9.26;88.02;97858.06;1641723;86;20148;-82
2021/09/19 05:56:00;;;;;;;;;;;;;;;9.29;87.97;97854.80;1617243;87;20143;-78
2021/09/19 05:58:26;;;;;;;;;;;;;;;9.30;88.42;97861.02;1641868;86;21043;-82
2021/09/19 06:00:53;;;;;;;;;;;;;;;9.29;88.09;97860.75;1641213;86;20150;-83
2021/09/19 06:03:20;;;;;;;;;;;;;;;9.09;88.04;97862.16;1641282;85;20141;-82
2021/09/19 06:05:47;;;;;;;;;;;;;;;9.03;88.67;97869.46;1641460;86;20153;-83
2021/09/19 06:08:14;;;;;;;;;;;;;;;8.86;89.25;97873.81;1641408;86;20183;-82
2021/09/19 06:10:41;;;;;;;;;;;;;;;8.79;90.04;97869.22;1641291;86;20948;-77
2021/09/19 06:13:08;;;;;;;;;;;;;;;8.70;90.45;97870.30;1641539;86;20151;-78
2021/09/19 06:15:34;;;;;;;;;;;;;;;8.72;90.34;97878.16;1641291;86;20154;-82
2021/09/19 06:18:01;;;;;;;;;;;;;;;8.72;90.96;97879.52;1641544;86;20166;-77
2021/09/19 06:20:28;;;;;;;;;;;;;;;8.80;90.97;97875.43;1641090;86;20516;-77
2021/09/19 06:22:55;;;;;;;;;;;;;;;8.79;90.84;97880.02;1656201;85;21026;-78
2021/09/19 06:25:22;;;;;;;;;;;;;;;8.67;91.24;97881.66;1655651;85;20485;-77
2021/09/19 06:27:49;;;;;;;;;;;;;;;8.57;91.25;97873.56;1648284;85;20150;-83
2021/09/19 06:30:16;;;;;;;;;;;;;;;8.57;91.38;97873.56;1641482;86;20166;-80
2021/09/19 06:32:42;;;;;;;;;;;;;;;8.56;91.86;97884.10;1641320;86;20189;-80
2021/09/19 06:35:09;;;;;;;;;;;;;;;8.50;92.60;97878.42;1641242;86;20997;-84
2021/09/19 06:37:36;;;;;;;;;;;;;;;8.43;92.35;97885.97;1641460;85;20455;-80
2021/09/19 06:40:04;;;;;;;;;;;;;;;8.48;92.35;97891.39;1641503;86;20182;-79
2021/09/19 06:42:31;;;;;;;;;;;;;;;8.50;92.15;97887.87;1641669;85;20158;-84
2021/09/19 06:44:58;;;;;;;;;;;;;;;8.41;93.07;97882.73;1641515;86;20170;-84
2021/09/19 06:47:24;;;;;;;;;;;;;;;8.41;93.02;97885.44;1641473;85;20991;-80
2021/09/19 06:49:52;;;;;;;;;;;;;;;8.23;93.43;97890.78;1641590;85;20136;-80
2021/09/19 06:52:20;;;;;;;;;;;;;;;8.26;93.52;97881.33;1641761;86;20150;-84
2021/09/19 06:54:47;;;;;;;;;;;;;;;8.23;93.78;97889.43;1641477;86;20151;-79
2021/09/19 06:57:14;;;;;;;;;;;;;;;8.14;94.06;97889.69;1641461;86;20133;-85
2021/09/19 06:59:41;;;;;;;;;;;;;;;8.18;94.19;97889.41;1641519;86;21699;-84
2021/09/19 07:02:08;;;;;;;;;;;;;;;8.22;94.13;97891.86;1641306;85;20142;-85
2021/09/19 07:04:35;;;;;;;;;;;;;;;8.24;94.33;97892.94;1641588;86;20177;-79
2021/09/19 07:07:02;;;;;;;;;;;;;;;8.31;94.07;97891.61;1614928;87;20193;-79
2021/09/19 07:09:29;;;;;;;;;;;;;;;8.41;94.11;97897.58;1644101;86;20134;-79
2021/09/19 07:11:55;;;;;;;;;;;;;;;8.43;93.62;97900.28;1643794;86;21706;-84
2021/09/19 07:14:22;;;;;;;;;;;;;;;8.39;93.75;97900.56;1641520;85;20213;-84
2021/09/19 07:16:49;;;;;;;;;;;;;;;8.45;93.74;97902.16;1641425;85;20174;-79
2021/09/19 07:19:16;;;;;;;;;;;;;;;8.47;93.48;97899.22;1641579;86;20167;-84
2021/09/19 07:21:42;;;;;;;;;;;;;;;8.42;93.72;97892.45;1641486;86;20182;-80
2021/09/19 07:24:09;;;;;;;;;;;;;;;8.33;94.47;97895.38;1641561;86;20924;-84
2021/09/19 07:26:36;;;;;;;;;;;;;;;8.33;94.50;97892.14;1641363;86;20168;-82
2021/09/19 07:29:03;;;;;;;;;;;;;;;8.44;94.40;97897.03;1615092;86;20390;-81
2021/09/19 07:31:30;;;;;;;;;;;;;;;8.39;94.60;97896.51;1642258;85;20896;-81
2021/09/19 07:33:57;;;;;;;;;;;;;;;8.33;94.74;97893.49;1641429;86;20409;-79
2021/09/19 07:36:26;;;;;;;;;;;;;;;8.45;94.13;97896.77;1636811;87;20975;-79
2021/09/19 07:38:53;;;;;;;;;;;;;;;8.43;94.48;97904.33;1637053;86;20197;-84
2021/09/19 07:41:20;;;;;;;;;;;;;;;8.47;94.05;97901.92;1642710;86;20167;-79
2021/09/19 07:43:47;;;;;;;;;;;;;;;8.63;93.81;97903.55;1636963;87;20422;-84
2021/09/19 07:46:15;;;;;;;;;;;;;;;8.68;93.99;97900.03;1641291;86;20170;-79
2021/09/19 07:48:42;;;;;;;;;;;;;;;8.70;93.84;97902.72;1641314;87;21020;-79
2021/09/19 07:51:10;;;;;;;;;;;;;;;8.73;93.44;97900.84;1622111;87;21337;-82
2021/09/19 07:53:37;;;;;;;;;;;;;;;8.76;93.35;97907.59;1640105;87;20198;-84
2021/09/19 07:56:04;;;;;;;;;;;;;;;8.88;92.96;97911.36;1636908;86;20537;-79
2021/09/19 07:58:31;;;;;;;;;;;;;;;8.97;92.90;97910.58;1636922;87;20134;-79
2021/09/19 08:00:58;;;;;;;;;;;;;;;9.08;92.82;97909.20;1636662;86;21727;-79
2021/09/19 08:03:24;;;;;;;;;;;;;;;9.13;92.24;97907.28;1641386;86;20150;-79
2021/09/19 08:05:51;;;;;;;;;;;;;;;9.22;91.90;97904.30;1636701;86;20142;-84
2021/09/19 08:08:18;;;;;;;;;;;;;;;9.09;91.37;97906.22;1636852;86;20141;-84
2021/09/19 08:10:45;;;;;;;;;;;;;;;8.96;91.04;97905.41;1636635;86;20105;-77
2021/09/19 08:13:12;;;;;;;;;;;;;;;8.96;91.42;97909.47;1641376;87;20998;-82
2021/09/19 08:15:38;;;;;;;;;;;;;;;9.04;91.56;97914.33;1641073;86;20149;-79
2021/09/19 08:18:05;;;;;;;;;;;;;;;9.04;91.13;97913.78;1636906;86;20154;-85
2021/09/19 08:20:32;;;;;;;;;;;;;;;8.93;90.85;97912.18;1636675;86;20162;-85
2021/09/19 08:22:59;;;;;;;;;;;;;;;9.02;90.78;97913.80;1636939;86;20436;-84
2021/09/19 08:25:26;;;;;;;;;;;;;;;8.89;90.63;97918.41;1641177;86;21755;-79
2021/09/19 08:27:53;;;;;;;;;;;;;;;9.01;90.57;97924.34;1641355;86;20183;-84
2021/09/19 08:30:20;;;;;;;;;;;;;;;9.13;90.79;97924.05;1641177;86;20159;-84
2021/09/19 08:32:47;;;;;;;;;;;;;;;9.01;91.09;97925.69;1618800;87;20145;-84
2021/09/19 08:35:14;;;;;;;;;;;;;;;8.88;90.16;97932.44;1639544;86;20154;-77
2021/09/19 08:37:40;;;;;;;;;;;;;;;8.72;90.33;97921.39;1634564;87;21005;-82
2021/09/19 08:40:09;;;;;;;;;;;;;;;8.81;90.39;97918.95;1634322;85;20422;-77
2021/09/19 08:42:37;;;;;;;;;;;;;;;8.94;90.58;97920.55;1634574;86;20138;-82
2021/09/19 08:45:05;;;;;;;;;;;;;;;8.99;90.71;97926.52;1634713;85;20632;-77
2021/09/19 08:47:35;;;;;;;;;;;;;;;9.01;90.51;97925.69;1634486;85;20512;-84
2021/09/19 08:50:02;;;;;;;;;;;;;;;9.06;90.17;97932.45;1634279;86;21182;-84
2021/09/19 08:52:29;;;;;;;;;;;;;;;9.13;90.13;97926.20;1634264;86;20410;-80
2021/09/19 08:54:56;;;;;;;;;;;;;;;8.89;89.93;97925.17;1634500;86;20174;-84
2021/09/19 08:57:23;;;;;;;;;;;;;;;9.05;89.83;97924.05;1634333;86;20716;-84
2021/09/19 08:59:53;;;;;;;;;;;;;;;9.03;90.92;97930.28;1634502;85;20167;-85
2021/09/19 09:02:21;;;;;;;;;;;;;;;9.03;90.84;97927.58;1634310;86;21751;-79
2021/09/19 09:04:53;;;;;;;;;;;;;;;9.07;90.91;97934.62;1634488;86;20146;-78
2021/09/19 09:07:22;;;;;;;;;;;;;;;9.20;90.87;97925.94;1634363;88;20197;-83
2021/09/19 09:09:54;;;;;;;;;;;;;;;9.36;90.70;97936.19;1618011;86;20459;-84
2021/09/19 09:12:21;;;;;;;;;;;;;;;9.55;90.21;97933.16;1639225;86;20993;-79
2021/09/19 09:14:51;;;;;;;;;;;;;;;9.74;90.04;97934.72;1660791;85;21015;-79
2021/09/19 09:17:20;;;;;;;;;;;;;;;9.73;88.90;97928.49;1650919;85;20162;-83
2021/09/19 09:19:48;;;;;;;;;;;;;;;9.87;89.33;97935.49;1634703;86;20418;-84
2021/09/19 09:22:22;;;;;;;;;;;;;;;9.93;88.25;97930.88;1634735;86;20169;-79
2021/09/19 09:25:13;;;;;;;;;;;;;;;10.07;88.54;97927.81;1634504;87;20150;-79
2021/09/19 09:27:42;;;;;;;;;;;;;;;10.34;88.41;97925.55;1629927;87;21013;-83
2021/09/19 09:30:17;;;;;;;;;;;;;;;10.73;87.51;97923.38;1634702;84;20171;-84
2021/09/19 09:33:04;;;;;;;;;;;;;;;10.85;86.55;97925.20;1634555;88;20175;-78
2021/09/19 09:35:34;;;;;;;;;;;;;;;11.08;86.37;97925.53;1638397;86;20162;-82
2021/09/19 09:38:00;;;;;;;;;;;;;;;11.36;86.07;97928.77;1641453;86;20142;-77
2021/09/19 09:40:31;;;;;;;;;;;;;;;11.53;85.71;97925.62;1641376;86;21055;-82
2021/09/19 09:43:05;;;;;;;;;;;;;;;11.54;85.94;97924.00;1641876;85;20158;-82
2021/09/19 09:45:32;;;;;;;;;;;;;;;11.51;85.36;97927.27;1640746;85;20142;-83
2021/09/19 09:47:59;;;;;;;;;;;;;;;11.45;84.56;97928.44;1641600;86;20433;-80
2021/09/19 09:50:26;;;;;;;;;;;;;;;11.46;83.56;97936.84;1641352;85;20416;-85
2021/09/19 09:53:12;;;;;;;;;;;;;;;11.24;84.23;97933.23;1641309;86;21727;-86
2021/09/19 09:55:43;;;;;;;;;;;;;;;11.22;84.18;97931.92;1641015;85;20150;-80
2021/09/19 09:58:12;;;;;;;;;;;;;;;11.22;84.05;97934.63;1641316;86;20134;-84
2021/09/19 10:00:39;;;;;;;;;;;;;;;11.08;83.07;97940.44;1641737;86;20150;-81
2021/09/19 10:03:06;;;;;;;;;;;;;;;10.98;83.18;97943.50;1641533;85;20146;-79
2021/09/19 10:05:33;;;;;;;;;;;;;;;10.90;83.33;97939.23;1621215;87;20964;-78
2021/09/19 10:08:00;;;;;;;;;;;;;;;10.87;84.39;97945.23;1641236;86;20162;-83
2021/09/19 10:10:29;;;;;;;;;;;;;;;10.92;83.87;97937.05;1621330;86;20141;-79
2021/09/19 10:12:56;;;;;;;;;;;;;;;10.77;83.56;97946.13;1641242;86;20672;-78
2021/09/19 10:15:24;;;;;;;;;;;;;;;10.76;84.13;97947.74;1621762;87;20206;-78
2021/09/19 10:17:52;;;;;;;;;;;;;;;10.77;83.74;97948.00;1641058;86;21347;-83
2021/09/19 10:20:28;;;;;;;;;;;;;;;10.67;83.11;97946.98;1641292;85;20114;-83
2021/09/19 10:23:16;;;;;;;;;;;;;;;10.59;83.39;97947.58;1636584;85;20134;-83
2021/09/19 10:25:52;;;;;;;;;;;;;;;10.59;84.00;97950.84;1641308;87;20749;-78
2021/09/19 10:28:24;;;;;;;;;;;;;;;10.62;84.07;97952.45;1641412;87;20145;-78
2021/09/19 10:31:17;;;;;;;;;;;;;;;10.60;82.97;97947.06;1641334;87;21088;-78
2021/09/19 10:33:58;;;;;;;;;;;;;;;10.64;83.15;97952.98;1641463;85;20146;-79
2021/09/19 10:36:45;;;;;;;;;;;;;;;10.51;83.35;97952.27;1639785;85;20171;-78
2021/09/19 10:39:23;;;;;;;;;;;;;;;10.52;83.71;97954.43;1639679;86;20197;-78
2021/09/19 10:42:16;;;;;;;;;;;;;;;10.50;83.18;97957.39;1639124;86;20118;-78
2021/09/19 10:44:50;;;;;;;;;;;;;;;10.39;83.48;97962.07;1640897;86;20969;-78
2021/09/19 10:47:26;;;;;;;;;;;;;;;10.37;83.11;97962.09;1641484;86;20242;-83
2021/09/19 10:50:21;;;;;;;;;;;;;;;10.38;83.62;97959.64;1641661;85;20154;-82
2021/09/19 10:52:54;;;;;;;;;;;;;;;10.48;84.22;97962.84;1641427;85;20130;-78
2021/09/19 10:55:31;;;;;;;;;;;;;;;10.58;83.84;97959.52;1641444;85;20150;-82
2021/09/19 10:58:06;;;;;;;;;;;;;;;10.58;83.58;97963.58;1641264;87;20918;-83
2021/09/19 11:00:34;;;;;;;;;;;;;;;10.58;83.61;97958.16;1636599;87;20181;-83
2021/09/19 11:03:19;;;;;;;;;;;;;;;10.57;82.94;97962.51;1636590;87;20150;-83
2021/09/19 11:05:48;;;;;;;;;;;;;;;10.53;83.05;97964.17;1640114;85;20162;-82
2021/09/19 11:08:18;;;;;;;;;;;;;;;10.50;83.42;97960.65;1640857;85;20142;-82
2021/09/19 11:10:53;;;;;;;;;;;;;;;10.57;83.27;97960.61;1641136;86;20454;-82
2021/09/19 11:13:22;;;;;;;;;;;;;;;10.67;83.50;97958.37;1640913;87;20425;-78
2021/09/19 11:16:04;;;;;;;;;;;;;;;10.82;82.55;97952.84;1627107;86;20155;-78
2021/09/19 11:18:41;;;;;;;;;;;;;;;10.73;81.98;97956.70;1634218;86;20097;-82
2021/09/19 11:21:17;;;;;;;;;;;;;;;10.77;82.48;97955.61;1635753;87;20166;-78
2021/09/19 11:23:46;;;;;;;;;;;;;;;10.86;82.29;97960.70;1636922;87;20909;-83
2021/09/19 11:26:18;;;;;;;;;;;;;;;10.80;82.15;97961.01;1634211;87;20462;-83
2021/09/19 11:28:46;;;;;;;;;;;;;;;10.79;82.39;97958.84;1641475;86;20162;-78
2021/09/19 11:31:14;;;;;;;;;;;;;;;10.87;82.27;97955.53;1637050;86;20118;-78
2021/09/19 11:33:41;;;;;;;;;;;;;;;10.82;82.00;97958.27;1619919;88;20167;-82
2021/09/19 11:36:10;;;;;;;;;;;;;;;10.89;82.00;97954.70;1638399;86;20965;-78
2021/09/19 11:38:41;;;;;;;;;;;;;;;10.86;81.84;97957.17;1641340;86;20146;-78
2021/09/19 11:41:08;;;;;;;;;;;;;;;10.90;81.31;97959.57;1633457;86;20162;-82
2021/09/19 11:43:39;;;;;;;;;;;;;;;10.93;81.81;97962.52;1641594;86;20142;-82
2021/09/19 11:46:10;;;;;;;;;;;;;;;11.09;81.18;97965.91;1641745;86;20122;-79
2021/09/19 11:48:38;;;;;;;;;;;;;;;11.19;81.55;97968.53;1641706;87;20681;-79
2021/09/19 11:51:06;;;;;;;;;;;;;;;11.24;79.90;97967.14;1616305;87;20161;-78
2021/09/19 11:53:36;;;;;;;;;;;;;;;11.20;80.88;97962.59;1643809;86;20157;-79
2021/09/19 11:56:03;;;;;;;;;;;;;;;11.28;80.69;97960.07;1644316;85;20203;-79
2021/09/19 11:58:30;;;;;;;;;;;;;;;11.18;80.60;97960.14;1644336;86;20429;-79
2021/09/19 12:00:59;;;;;;;;;;;;;;;11.21;80.28;97959.59;1644027;86;21781;-79
2021/09/19 12:03:26;;;;;;;;;;;;;;;11.17;79.66;97952.30;1641541;85;20150;-82
2021/09/19 12:05:55;;;;;;;;;;;;;;;11.12;78.93;97952.36;1641550;86;20177;-82
2021/09/19 12:08:23;;;;;;;;;;;;;;;11.03;79.87;97956.77;1634088;86;20217;-79
2021/09/19 12:10:50;;;;;;;;;;;;;;;11.07;79.42;97962.69;1655867;85;20147;-79
2021/09/19 12:13:28;;;;;;;;;;;;;;;10.96;80.01;97955.73;1655967;85;21000;-79
2021/09/19 12:15:59;;;;;;;;;;;;;;;11.04;79.84;97961.91;1655847;86;20205;-82
2021/09/19 12:18:27;;;;;;;;;;;;;;;11.06;80.71;97958.91;1655821;85;20154;-79
2021/09/19 12:21:00;;;;;;;;;;;;;;;11.12;80.80;97960.48;1646222;85;20176;-81
2021/09/19 12:23:27;;;;;;;;;;;;;;;11.15;80.56;97957.20;1641454;85;20374;-79
2021/09/19 12:25:53;;;;;;;;;;;;;;;11.16;80.65;97951.48;1641453;86;21732;-81
2021/09/19 12:28:33;;;;;;;;;;;;;;;11.18;80.87;97948.48;1641391;86;20146;-82
2021/09/19 12:31:00;;;;;;;;;;;;;;;11.21;79.84;97949.29;1641638;86;20420;-79
2021/09/19 12:33:27;;;;;;;;;;;;;;;11.12;80.27;97949.09;1634080;86;20166;-82
2021/09/19 12:35:54;;;;;;;;;;;;;;;11.12;80.59;97952.36;1652595;85;20165;-80
2021/09/19 12:38:23;;;;;;;;;;;;;;;11.12;80.31;97956.42;1641452;85;21027;-79
2021/09/19 12:40:51;;;;;;;;;;;;;;;11.11;80.81;97956.13;1641418;86;20134;-79
2021/09/19 12:43:18;;;;;;;;;;;;;;;11.14;80.21;97950.16;1641651;85;20406;-82
2021/09/19 12:45:52;;;;;;;;;;;;;;;11.07;80.75;97952.39;1635585;86;20177;-79
2021/09/19 12:48:27;;;;;;;;;;;;;;;11.06;80.79;97960.27;1642261;86;20166;-79
2021/09/19 12:51:01;;;;;;;;;;;;;;;11.07;81.07;97956.45;1638089;87;21015;-79
2021/09/19 12:53:30;;;;;;;;;;;;;;;11.02;79.87;97957.30;1641356;86;20166;-79
2021/09/19 12:55:59;;;;;;;;;;;;;;;10.95;80.53;97954.93;1641405;86;20153;-79